Ana Sayfa
METAR-TAF:

METAR-TAF

Havaalanları :

Çiğli Hava Üssü

İzmir, Türkiye

Enlem: 38-30N, Boylam: 027-01E, yükseklik: 5 m

METAR: eksik

Saat: 08:55 (05:55 UTC)

Tahmin

Rapor saat 04:40 UTC de 1 saat ve 15 dakika önce yapıldı.
Ayın 17'si saat 06 UTC'den ayın 17'si saat 15 UTC'ye kadar geçerli Tahmin
Rüzgar değişken yönden 2 kt
Görüş mesafesi 10 km veya daha fazla
4000 ft yükseklikte az bulutlu
Dönüşüyor
ayın 17'si saat 08 UTC'den ayın 17'si saat 10 UTC'ye kadar
Rüzgar batıdan 12 kt

TAF: LTBL 170440Z 1706/1715 VRB02KT 9999 FEW040 BECMG 1708/1710 28012KT

4.000'den fazla havaalanı için hava durumu gözlemleri ve tahminleri (METAR ve TAF raporları).

Kullanılabilir istasyonlar harita üzerinde sarı ve kırmızı noktalarla gösterilir.

İstasyonun adını görmek için fareyi noktanın üzerinde gezdirin.

Sonrasında hava gözlem ve tahminlerini görmek için tıklayın.

Haritayı değiştirmek için: yaklaştırmak için siyah artı işaretli yeşil düğmeye ve uzaklaştırmak için de eksi işaretli düğmeye hızla tıklayın; bitişik haritalar için yeşil okları kullanın.


METAR-TAF: